Time;durP1;ratioP1;P1;durP2;ratioP2;P2;SDS_P1;SDS_P2;PMS_P1;PMS_P2;Temp;Humidity;BMP_temperature;BMP_pressure;BME280_temperature;BME280_humidity;BME280_pressure;Samples;Min_cycle;Max_cycle;Signal;HPM_P1;HPM_P2
2023/11/27 00:01:00;;;;;;;4.00;3.42;;;;;;;3.49;90.67;98197.03;5065965;28;20438;-85
2023/11/27 00:03:26;;;;;;;5.70;3.70;;;;;;;3.64;89.29;98191.38;5066310;28;20174;-84
2023/11/27 00:05:51;;;;;;;4.15;3.67;;;;;;;3.61;90.04;98187.34;5032953;28;20480;-85
2023/11/27 00:08:16;;;;;;;4.25;3.88;;;;;;;3.68;89.90;98203.91;5067511;28;20057;-85
2023/11/27 00:10:42;;;;;;;5.90;3.83;;;;;;;3.58;90.03;98187.00;5049166;28;20137;-85
2023/11/27 00:13:07;;;;;;;6.75;3.83;;;;;;;3.57;90.06;98195.91;5067930;28;20032;-85
2023/11/27 00:15:33;;;;;;;4.15;3.40;;;;;;;3.47;89.97;98180.59;5048322;28;20024;-86
2023/11/27 00:17:58;;;;;;;5.35;4.00;;;;;;;3.52;90.05;98186.03;5032058;28;20057;-86
2023/11/27 00:20:24;;;;;;;4.15;3.72;;;;;;;3.54;90.22;98189.25;5069123;28;20057;-86
2023/11/27 00:22:49;;;;;;;4.85;3.28;;;;;;;3.56;90.44;98184.56;5050145;28;20067;-86
2023/11/27 00:25:15;;;;;;;5.05;3.28;;;;;;;3.50;90.85;98182.78;5047084;28;20107;-86
2023/11/27 00:27:42;;;;;;;3.45;3.03;;;;;;;3.53;90.59;98177.09;5064868;28;20028;-86
2023/11/27 00:30:07;;;;;;;4.22;3.35;;;;;;;3.52;90.06;98174.66;5067254;28;20078;-86
2023/11/27 00:32:33;;;;;;;4.57;3.25;;;;;;;3.44;90.14;98167.84;5054121;28;20036;-86
2023/11/27 00:34:59;;;;;;;6.00;4.40;;;;;;;3.56;89.96;98178.50;5036321;28;20029;-86
2023/11/27 00:37:24;;;;;;;3.65;3.17;;;;;;;3.50;90.28;98174.88;5069885;28;20541;-85
2023/11/27 00:39:50;;;;;;;5.25;3.90;;;;;;;3.52;90.17;98169.38;5050787;28;20100;-86
2023/11/27 00:42:17;;;;;;;5.25;3.83;;;;;;;3.48;89.84;98165.56;5053067;28;20020;-86
2023/11/27 00:44:43;;;;;;;4.47;3.45;;;;;;;3.58;90.15;98156.09;5047634;28;20032;-86
2023/11/27 00:47:08;;;;;;;5.78;4.22;;;;;;;3.57;90.08;98146.59;5052929;28;20399;-86
2023/11/27 00:49:34;;;;;;;5.85;4.10;;;;;;;3.74;89.64;98165.25;5051344;28;20035;-86
2023/11/27 00:51:59;;;;;;;4.63;4.07;;;;;;;3.69;89.25;98157.22;5063374;28;20033;-86
2023/11/27 00:54:24;;;;;;;6.13;4.65;;;;;;;3.61;89.91;98149.59;5049673;28;20052;-86
2023/11/27 00:56:50;;;;;;;6.72;3.83;;;;;;;3.54;89.25;98154.13;5053855;28;20024;-85
2023/11/27 00:59:15;;;;;;;5.82;4.50;;;;;;;3.61;89.84;98147.78;5062770;28;20060;-85
2023/11/27 01:01:40;;;;;;;4.70;4.20;;;;;;;3.60;89.73;98155.91;5045947;28;20094;-86
2023/11/27 01:04:06;;;;;;;5.53;3.75;;;;;;;3.76;89.22;98165.84;5067962;28;20510;-86
2023/11/27 01:06:31;;;;;;;5.03;4.28;;;;;;;3.73;89.18;98148.63;5049883;28;20035;-86
2023/11/27 01:08:56;;;;;;;5.90;4.22;;;;;;;3.70;89.21;98145.63;5066871;28;20053;-85
2023/11/27 01:11:22;;;;;;;7.95;4.47;;;;;;;3.69;88.56;98142.19;5049050;28;20060;-86
2023/11/27 01:13:47;;;;;;;4.45;3.78;;;;;;;3.41;90.27;98135.81;5049425;28;20024;-86
2023/11/27 01:16:12;;;;;;;5.07;4.05;;;;;;;3.60;89.30;98127.66;5064564;28;20080;-85
2023/11/27 01:18:38;;;;;;;7.05;3.97;;;;;;;3.67;90.21;98143.41;5031343;28;20032;-85
2023/11/27 01:21:05;;;;;;;3.45;3.15;;;;;;;3.54;90.10;98138.31;5048964;28;20028;-86
2023/11/27 01:23:31;;;;;;;7.00;4.60;;;;;;;3.60;89.50;98142.72;5045638;28;20043;-86
2023/11/27 01:25:57;;;;;;;6.25;4.28;;;;;;;3.45;89.82;98127.25;5052617;28;20028;-85
2023/11/27 01:28:22;;;;;;;4.75;4.10;;;;;;;3.83;89.81;98129.63;5031303;28;20496;-86
2023/11/27 01:30:48;;;;;;;5.15;3.72;;;;;;;3.71;89.27;98112.94;5064724;28;20086;-85
2023/11/27 01:33:15;;;;;;;5.45;4.45;;;;;;;3.76;89.37;98111.25;5063482;28;20029;-85
2023/11/27 01:35:40;;;;;;;5.38;3.90;;;;;;;3.90;89.01;98117.16;5035469;28;20051;-86
2023/11/27 01:38:06;;;;;;;5.72;4.20;;;;;;;3.71;88.84;98100.53;5052061;28;20033;-86
2023/11/27 01:40:31;;;;;;;4.63;3.42;;;;;;;3.84;88.77;98096.94;5051165;28;20115;-86
2023/11/27 01:42:59;;;;;;;7.97;4.50;;;;;;;3.79;89.31;98108.16;5084894;28;20037;-86
2023/11/27 01:45:24;;;;;;;8.00;4.43;;;;;;;3.92;89.20;98109.81;5048007;28;20035;-87
2023/11/27 01:47:50;;;;;;;7.28;5.25;;;;;;;3.97;88.69;98109.97;5066981;28;20037;-87
2023/11/27 01:50:15;;;;;;;6.03;4.82;;;;;;;4.02;87.86;98102.16;5051400;28;20033;-86
2023/11/27 01:52:41;;;;;;;5.88;4.85;;;;;;;4.03;88.36;98110.88;5035800;28;20032;-85
2023/11/27 01:55:07;;;;;;;6.80;5.32;;;;;;;4.02;88.66;98099.50;5051422;28;20020;-86
2023/11/27 01:57:35;;;;;;;8.13;5.75;;;;;;;4.06;88.26;98094.59;5068386;28;20077;-87
2023/11/27 02:00:03;;;;;;;6.35;4.80;;;;;;;3.83;88.16;98084.75;5064499;28;20036;-85
2023/11/27 02:02:28;;;;;;;6.55;5.35;;;;;;;4.03;88.50;98095.03;5057062;28;20036;-84
2023/11/27 02:04:54;;;;;;;7.15;6.03;;;;;;;3.88;88.35;98076.19;5043673;28;20043;-85
2023/11/27 02:07:19;;;;;;;8.65;5.25;;;;;;;3.96;88.68;98089.84;5060503;28;20488;-84
2023/11/27 02:09:45;;;;;;;8.00;5.93;;;;;;;3.93;88.25;98089.50;5059824;28;20040;-84
2023/11/27 02:12:10;;;;;;;11.45;8.00;;;;;;;3.86;89.45;98088.78;5049592;28;20530;-85
2023/11/27 02:14:35;;;;;;;7.13;5.80;;;;;;;3.90;89.05;98096.03;5060449;28;20116;-84
2023/11/27 02:17:01;;;;;;;8.35;6.10;;;;;;;3.82;89.18;98062.06;5030949;28;20060;-84
2023/11/27 02:19:26;;;;;;;9.07;6.45;;;;;;;3.95;88.87;98074.25;5061090;28;20029;-84
2023/11/27 02:21:52;;;;;;;7.68;5.93;;;;;;;3.90;89.19;98074.13;5047931;28;20028;-84
2023/11/27 02:24:17;;;;;;;7.47;6.43;;;;;;;3.75;89.53;98074.53;5064901;28;20028;-84
2023/11/27 02:26:42;;;;;;;8.93;6.70;;;;;;;3.95;88.95;98076.91;5059865;28;20055;-84
2023/11/27 02:29:08;;;;;;;10.52;7.68;;;;;;;3.66;89.43;98068.75;5060803;28;20040;-84
2023/11/27 02:31:34;;;;;;;18.20;7.45;;;;;;;3.63;89.87;98076.28;5062785;28;20550;-84
2023/11/27 02:33:59;;;;;;;9.23;6.78;;;;;;;3.58;89.89;98066.41;5069205;28;20029;-84
2023/11/27 02:36:26;;;;;;;7.97;6.63;;;;;;;3.37;90.46;98034.44;5068410;28;20024;-84
2023/11/27 02:38:52;;;;;;;8.90;6.63;;;;;;;3.67;89.95;98059.81;5066868;28;20040;-83
2023/11/27 02:41:18;;;;;;;9.52;6.97;;;;;;;3.70;89.97;98074.38;5070569;28;20028;-84
2023/11/27 02:43:44;;;;;;;7.72;6.25;;;;;;;3.83;89.30;98060.19;5048065;28;20079;-84
2023/11/27 02:46:09;;;;;;;7.50;6.80;;;;;;;3.77;89.48;98054.00;5064792;28;20032;-84
2023/11/27 02:48:35;;;;;;;7.53;6.10;;;;;;;3.79;88.93;98042.19;5048531;28;20484;-85
2023/11/27 02:51:00;;;;;;;8.68;7.10;;;;;;;3.76;89.31;98047.91;5070028;28;20071;-83
2023/11/27 02:53:26;;;;;;;7.88;6.43;;;;;;;3.74;89.50;98039.41;5053215;28;20376;-83
2023/11/27 02:55:54;;;;;;;6.82;6.07;;;;;;;3.73;89.51;98037.00;5036249;28;20039;-83
2023/11/27 02:58:20;;;;;;;6.65;5.97;;;;;;;3.70;89.61;98024.25;5067080;28;20029;-84
2023/11/27 03:00:45;;;;;;;8.68;6.30;;;;;;;3.71;89.53;98023.25;5049826;28;20944;-84
2023/11/27 03:03:11;;;;;;;9.95;6.47;;;;;;;3.58;90.60;98045.31;5049806;28;20074;-84
2023/11/27 03:05:36;;;;;;;7.80;7.00;;;;;;;3.63;90.04;98026.97;5050629;28;20036;-83
2023/11/27 03:08:02;;;;;;;8.77;6.80;;;;;;;3.72;89.93;98030.91;5062945;28;20029;-83
2023/11/27 03:10:28;;;;;;;9.93;7.78;;;;;;;3.75;89.21;98029.66;5065364;28;20024;-84
2023/11/27 03:12:53;;;;;;;9.05;6.60;;;;;;;3.85;89.17;98032.56;5066281;28;20039;-84
2023/11/27 03:15:20;;;;;;;10.80;7.47;;;;;;;3.68;89.40;98013.94;5063381;28;20503;-84
2023/11/27 03:17:45;;;;;;;10.27;7.18;;;;;;;3.96;89.11;98005.38;5065287;28;20038;-84
2023/11/27 03:20:12;;;;;;;10.68;6.85;;;;;;;3.84;89.39;98001.94;5063436;28;20115;-84
2023/11/27 03:22:37;;;;;;;7.28;6.43;;;;;;;3.97;88.47;98001.72;5032634;28;20047;-83
2023/11/27 03:25:04;;;;;;;8.40;6.82;;;;;;;3.95;88.27;98001.16;5047668;28;20033;-83
2023/11/27 03:27:29;;;;;;;12.10;6.90;;;;;;;3.97;88.86;98007.00;5049306;28;20451;-83
2023/11/27 03:29:54;;;;;;;8.82;7.20;;;;;;;3.95;88.22;97992.41;5046491;28;20028;-84
2023/11/27 03:32:20;;;;;;;8.93;7.28;;;;;;;3.93;88.47;97997.13;5066484;28;21065;-83
2023/11/27 03:34:45;;;;;;;9.60;6.57;;;;;;;3.88;88.92;97989.88;5048731;28;20033;-84
2023/11/27 03:37:11;;;;;;;7.93;6.57;;;;;;;3.83;88.92;97987.09;5031523;28;20039;-84
2023/11/27 03:39:36;;;;;;;8.10;6.80;;;;;;;3.63;88.36;97953.09;5050124;28;20021;-84
2023/11/27 03:42:02;;;;;;;9.30;7.03;;;;;;;3.49;88.72;97982.56;5066276;28;20021;-83
2023/11/27 03:44:27;;;;;;;7.68;6.68;;;;;;;3.61;89.54;97973.63;5061267;28;20033;-84
2023/11/27 03:46:53;;;;;;;9.45;6.80;;;;;;;3.45;90.37;97986.66;5066242;28;20029;-83
2023/11/27 03:49:18;;;;;;;7.15;6.32;;;;;;;3.72;88.95;97975.50;5064425;28;20102;-84
2023/11/27 03:51:43;;;;;;;8.25;6.72;;;;;;;3.90;88.41;97976.44;5060393;28;20037;-83
2023/11/27 03:54:11;;;;;;;10.57;6.90;;;;;;;3.59;88.71;97970.41;5061569;28;20028;-83
2023/11/27 03:56:37;;;;;;;10.35;6.75;;;;;;;3.70;88.23;97974.13;5061112;28;20031;-84
2023/11/27 03:59:02;;;;;;;7.03;5.60;;;;;;;3.70;88.81;97958.28;5066198;28;20519;-83
2023/11/27 04:01:28;;;;;;;9.50;6.05;;;;;;;3.79;89.31;97972.75;5068056;28;20103;-84
2023/11/27 04:03:53;;;;;;;10.88;6.72;;;;;;;3.72;88.34;97967.59;5048048;28;20399;-83
2023/11/27 04:06:24;;;;;;;8.57;6.25;;;;;;;3.80;88.36;97956.69;5049925;28;20070;-83
2023/11/27 04:08:49;;;;;;;8.07;5.90;;;;;;;3.76;88.09;97947.63;5063479;28;20032;-84
2023/11/27 04:11:15;;;;;;;11.32;5.28;;;;;;;3.67;88.89;97956.09;5049009;28;20028;-83
2023/11/27 04:13:41;;;;;;;8.30;5.78;;;;;;;3.57;89.34;97940.00;5066298;28;20035;-83
2023/11/27 04:16:09;;;;;;;8.90;5.22;;;;;;;3.50;89.23;97936.66;5048875;28;20032;-83
2023/11/27 04:18:34;;;;;;;9.13;6.00;;;;;;;3.51;89.35;97933.81;5047012;28;20040;-83
2023/11/27 04:21:00;;;;;;;8.45;5.72;;;;;;;3.57;89.40;97950.56;5069817;28;20040;-83
2023/11/27 04:23:26;;;;;;;5.28;4.63;;;;;;;3.60;89.04;97955.41;5066390;28;20032;-84
2023/11/27 04:25:51;;;;;;;6.40;4.85;;;;;;;3.55;88.65;97934.97;5066351;28;20031;-83
2023/11/27 04:28:16;;;;;;;7.85;5.30;;;;;;;3.57;88.57;97924.19;5071866;28;20107;-83
2023/11/27 04:30:42;;;;;;;13.15;5.50;;;;;;;3.43;89.14;97918.28;5048629;28;20185;-84
2023/11/27 04:33:07;;;;;;;6.43;5.07;;;;;;;3.48;88.76;97928.16;5030601;28;20044;-84
2023/11/27 04:35:33;;;;;;;8.93;5.38;;;;;;;3.52;89.05;97919.59;5049959;28;20381;-84
2023/11/27 04:37:59;;;;;;;11.25;5.47;;;;;;;3.41;88.79;97916.91;5044509;28;20028;-83
2023/11/27 04:40:24;;;;;;;9.68;6.18;;;;;;;3.28;89.33;97902.09;5063209;28;20512;-83
2023/11/27 04:42:50;;;;;;;21.70;5.97;;;;;;;3.50;88.54;97923.47;5048873;28;20036;-83
2023/11/27 04:45:15;;;;;;;7.88;5.82;;;;;;;3.42;89.07;97900.06;5067434;28;20032;-84
2023/11/27 04:47:40;;;;;;;7.75;5.85;;;;;;;3.50;88.23;97918.19;5035405;28;20020;-83
2023/11/27 04:50:07;;;;;;;10.32;6.70;;;;;;;3.53;88.79;97904.56;5046685;28;20032;-83
2023/11/27 04:52:33;;;;;;;12.45;6.72;;;;;;;3.45;88.58;97908.31;5081805;28;20043;-83
2023/11/27 04:54:58;;;;;;;10.63;6.80;;;;;;;3.34;88.95;97898.53;5063175;28;20028;-84
2023/11/27 04:57:24;;;;;;;11.80;6.07;;;;;;;3.36;89.21;97890.44;5048226;28;21078;-83
2023/11/27 04:59:50;;;;;;;13.20;5.90;;;;;;;3.26;88.49;97875.16;5042897;28;20055;-84
2023/11/27 05:02:15;;;;;;;18.90;7.18;;;;;;;3.43;88.37;97904.31;5061793;28;20028;-84
2023/11/27 05:04:41;;;;;;;13.50;5.90;;;;;;;3.54;88.17;97900.88;5061232;28;20459;-83
2023/11/27 05:07:07;;;;;;;11.13;5.88;;;;;;;3.47;88.59;97889.66;5042164;28;20039;-83
2023/11/27 05:09:33;;;;;;;14.00;5.80;;;;;;;3.48;89.00;97894.69;5058129;28;20028;-84
2023/11/27 05:11:58;;;;;;;10.48;6.55;;;;;;;3.44;88.89;97893.53;5031508;28;20040;-83
2023/11/27 05:14:24;;;;;;;16.17;7.32;;;;;;;3.35;88.53;97875.63;5059565;28;20029;-83
2023/11/27 05:16:49;;;;;;;12.38;7.35;;;;;;;3.22;89.22;97860.81;5041353;28;20047;-83
2023/11/27 05:19:14;;;;;;;14.52;7.22;;;;;;;3.36;89.00;97885.97;5057763;28;20086;-84
2023/11/27 05:21:40;;;;;;;15.95;7.32;;;;;;;3.22;88.92;97879.28;5039839;28;20081;-83
2023/11/27 05:24:05;;;;;;;10.18;6.63;;;;;;;3.36;88.52;97871.97;5026327;28;20124;-83
2023/11/27 05:26:31;;;;;;;10.52;6.63;;;;;;;3.24;89.33;97861.38;5054206;28;20057;-83
2023/11/27 05:28:56;;;;;;;10.48;6.82;;;;;;;3.24;88.83;97852.66;5056168;28;20154;-83
2023/11/27 05:31:23;;;;;;;11.23;7.38;;;;;;;3.28;89.11;97854.63;5044063;28;20032;-83
2023/11/27 05:33:48;;;;;;;11.15;7.05;;;;;;;3.32;89.23;97861.06;5059926;28;20651;-83
2023/11/27 05:36:14;;;;;;;14.40;7.45;;;;;;;3.31;89.16;97861.28;5047116;28;20145;-84
2023/11/27 05:38:39;;;;;;;15.50;7.88;;;;;;;3.36;88.95;97861.44;5066182;28;20073;-84
2023/11/27 05:41:07;;;;;;;8.77;6.35;;;;;;;3.33;89.12;97870.59;5044951;28;20036;-82
2023/11/27 05:43:33;;;;;;;13.77;6.85;;;;;;;3.29;89.53;97860.72;5047198;28;20086;-83
2023/11/27 05:45:58;;;;;;;11.35;7.32;;;;;;;3.30;88.81;97843.88;5048119;28;20107;-83
2023/11/27 05:48:23;;;;;;;12.77;6.22;;;;;;;3.41;88.69;97848.34;5041236;28;20546;-83
2023/11/27 05:50:49;;;;;;;11.38;6.72;;;;;;;3.38;88.90;97849.63;5036247;28;20021;-82
2023/11/27 05:53:14;;;;;;;10.52;6.95;;;;;;;3.38;88.73;97848.81;5063814;28;20073;-82
2023/11/27 05:55:40;;;;;;;13.38;6.55;;;;;;;3.28;88.33;97843.28;5063759;28;20016;-83
2023/11/27 05:58:08;;;;;;;11.90;6.70;;;;;;;3.29;89.36;97835.16;5064853;28;20480;-81
2023/11/27 06:00:34;;;;;;;13.95;7.95;;;;;;;3.30;88.80;97849.16;5063319;28;20035;-81
2023/11/27 06:03:00;;;;;;;13.00;7.25;;;;;;;3.39;88.84;97851.22;5060710;28;20040;-81
2023/11/27 06:05:26;;;;;;;15.55;9.55;;;;;;;3.43;88.89;97841.03;5061697;28;20024;-83
2023/11/27 06:07:51;;;;;;;11.23;7.03;;;;;;;3.47;88.60;97845.59;5054315;28;20028;-83
2023/11/27 06:10:17;;;;;;;13.18;7.30;;;;;;;3.49;88.72;97834.84;5067726;28;20028;-82
2023/11/27 06:12:43;;;;;;;11.80;6.55;;;;;;;3.43;88.42;97820.72;5062553;28;20028;-82
2023/11/27 06:15:13;;;;;;;13.05;7.18;;;;;;;3.41;89.06;97833.31;5047749;28;20495;-83
2023/11/27 06:17:39;;;;;;;14.98;7.57;;;;;;;3.44;88.80;97827.59;5062937;28;20037;-82
2023/11/27 06:20:05;;;;;;;15.93;6.82;;;;;;;3.46;88.48;97824.72;5046444;28;20488;-83
2023/11/27 06:22:32;;;;;;;11.07;7.00;;;;;;;3.43;88.34;97818.06;5035661;28;20523;-83
2023/11/27 06:24:57;;;;;;;11.52;6.93;;;;;;;3.47;88.43;97811.31;5067467;28;20050;-83
2023/11/27 06:27:23;;;;;;;11.30;7.93;;;;;;;3.46;88.84;97811.53;5073979;28;20118;-82
2023/11/27 06:29:48;;;;;;;12.95;7.72;;;;;;;3.48;89.04;97810.28;5035724;28;24148;-82
2023/11/27 06:32:14;;;;;;;16.33;6.78;;;;;;;3.52;88.39;97810.63;5071615;28;20040;-82
2023/11/27 06:34:39;;;;;;;12.90;8.70;;;;;;;3.36;88.70;97816.59;5049781;28;20032;-82
2023/11/27 06:37:04;;;;;;;12.60;7.90;;;;;;;3.27;88.82;97794.22;5054814;28;20032;-82
2023/11/27 06:39:30;;;;;;;12.23;7.68;;;;;;;3.48;88.62;97806.84;5072129;28;20246;-81
2023/11/27 06:41:55;;;;;;;12.13;7.45;;;;;;;3.45;88.69;97802.81;5039037;28;20056;-82
2023/11/27 06:44:20;;;;;;;14.20;7.45;;;;;;;3.45;88.49;97807.31;5071493;28;20036;-82
2023/11/27 06:46:46;;;;;;;16.05;8.00;;;;;;;3.35;88.74;97807.88;5065204;28;20039;-82
2023/11/27 06:49:12;;;;;;;10.70;7.97;;;;;;;3.30;89.08;97788.50;5045244;28;20128;-82
2023/11/27 06:51:38;;;;;;;13.55;8.52;;;;;;;3.16;89.47;97785.28;5069826;28;20113;-82
2023/11/27 06:54:03;;;;;;;17.73;9.82;;;;;;;3.33;89.22;97793.31;5030100;28;20116;-81
2023/11/27 06:56:33;;;;;;;13.05;8.75;;;;;;;3.23;89.79;97790.44;5050328;28;20044;-81
2023/11/27 06:59:03;;;;;;;11.80;8.90;;;;;;;3.35;88.66;97785.97;5049967;28;20415;-82
2023/11/27 07:01:29;;;;;;;12.25;7.88;;;;;;;3.48;88.20;97789.19;5069872;28;20470;-81
2023/11/27 07:03:58;;;;;;;9.80;7.50;;;;;;;3.41;88.51;97777.13;5064919;28;20120;-82
2023/11/27 07:06:24;;;;;;;14.00;8.23;;;;;;;3.33;88.65;97785.38;5067951;28;20034;-81
2023/11/27 07:08:50;;;;;;;11.40;8.05;;;;;;;3.39;88.93;97774.72;5070155;28;20032;-81
2023/11/27 07:11:15;;;;;;;10.45;7.53;;;;;;;3.16;88.73;97766.00;5050542;28;20028;-81
2023/11/27 07:13:43;;;;;;;10.93;7.55;;;;;;;3.23;88.66;97761.44;5065930;28;20139;-83
2023/11/27 07:16:09;;;;;;;12.70;8.98;;;;;;;3.32;88.64;97767.97;5050924;28;20093;-81
2023/11/27 07:18:34;;;;;;;11.25;8.45;;;;;;;3.28;88.50;97769.44;5065353;28;20020;-81
2023/11/27 07:21:00;;;;;;;12.75;8.23;;;;;;;3.18;89.05;97754.22;5064997;28;20032;-81
2023/11/27 07:23:27;;;;;;;14.68;8.68;;;;;;;3.37;88.77;97765.44;5062501;28;20063;-81
2023/11/27 07:25:53;;;;;;;14.00;8.55;;;;;;;3.50;88.36;97765.22;5062230;28;20036;-81
2023/11/27 07:28:19;;;;;;;10.00;6.82;;;;;;;3.54;87.99;97764.53;5066214;28;20035;-83
2023/11/27 07:30:45;;;;;;;11.13;7.75;;;;;;;3.23;88.93;97751.69;5062606;28;20029;-82
2023/11/27 07:33:11;;;;;;;13.02;8.23;;;;;;;3.19;89.15;97749.75;5065844;28;20036;-82
2023/11/27 07:35:37;;;;;;;9.98;7.28;;;;;;;3.42;88.56;97750.56;5050652;28;20094;-83
2023/11/27 07:38:02;;;;;;;15.45;7.72;;;;;;;3.44;88.40;97745.03;5067948;28;20028;-83
2023/11/27 07:40:28;;;;;;;15.60;8.00;;;;;;;3.43;88.97;97749.50;5044527;28;20043;-82
2023/11/27 07:42:54;;;;;;;14.45;7.82;;;;;;;3.13;88.18;97719.81;5064436;28;20033;-82
2023/11/27 07:45:20;;;;;;;10.55;7.97;;;;;;;3.19;89.08;97734.72;5048766;28;20035;-83
2023/11/27 07:47:45;;;;;;;13.95;8.02;;;;;;;3.28;89.50;97728.06;5047777;28;20115;-83
2023/11/27 07:50:11;;;;;;;16.70;8.80;;;;;;;3.45;88.68;97733.47;5045527;28;20112;-83
2023/11/27 07:52:36;;;;;;;14.80;6.93;;;;;;;3.51;88.48;97738.63;5057622;28;20047;-83
2023/11/27 07:55:04;;;;;;;13.93;7.32;;;;;;;3.55;88.10;97728.41;5037140;28;20020;-83
2023/11/27 07:57:33;;;;;;;15.10;8.63;;;;;;;3.47;87.70;97713.72;5041398;28;20032;-83
2023/11/27 07:59:59;;;;;;;13.48;7.05;;;;;;;3.21;88.17;97676.50;5073083;28;20028;-82
2023/11/27 08:02:25;;;;;;;11.48;7.15;;;;;;;3.45;89.00;97717.66;5066744;28;20039;-82
2023/11/27 08:04:51;;;;;;;9.30;7.30;;;;;;;3.52;87.96;97715.66;5051538;28;20400;-83
2023/11/27 08:07:16;;;;;;;15.30;6.28;;;;;;;3.44;88.71;97708.13;5038553;28;20033;-83
2023/11/27 08:09:46;;;;;;;9.25;7.07;;;;;;;3.53;87.73;97699.63;5069092;28;20451;-83
2023/11/27 08:12:12;;;;;;;10.52;6.18;;;;;;;3.55;88.22;97707.31;5035629;28;20032;-82
2023/11/27 08:14:39;;;;;;;12.93;6.55;;;;;;;3.51;88.49;97703.53;5064010;28;20070;-83
2023/11/27 08:17:05;;;;;;;9.13;6.93;;;;;;;3.51;88.16;97698.25;5067809;28;20461;-83
2023/11/27 08:19:31;;;;;;;14.40;6.90;;;;;;;3.40;88.11;97683.25;5068268;28;20112;-83
2023/11/27 08:22:02;;;;;;;9.48;6.47;;;;;;;3.30;87.77;97680.41;5036293;28;20488;-83
2023/11/27 08:24:27;;;;;;;8.35;6.55;;;;;;;3.61;87.68;97685.25;5064489;28;20025;-82
2023/11/27 08:26:56;;;;;;;10.20;7.22;;;;;;;3.35;88.31;97676.03;5052187;28;20032;-83
2023/11/27 08:29:25;;;;;;;13.18;6.63;;;;;;;3.67;88.34;97686.97;5052408;28;20052;-83
2023/11/27 08:31:52;;;;;;;11.25;7.25;;;;;;;3.64;87.81;97682.16;5070168;28;20035;-82
2023/11/27 08:34:18;;;;;;;19.10;9.43;;;;;;;3.56;87.80;97672.78;5066005;28;20036;-82
2023/11/27 08:36:43;;;;;;;14.07;8.68;;;;;;;3.49;88.88;97672.13;5038163;28;20037;-82
2023/11/27 08:39:11;;;;;;;10.75;6.78;;;;;;;3.69;87.83;97682.28;5071111;28;20054;-82
2023/11/27 08:41:37;;;;;;;12.60;7.10;;;;;;;3.61;87.24;97662.34;5065117;28;20040;-82
2023/11/27 08:44:06;;;;;;;11.73;7.68;;;;;;;3.45;88.88;97659.63;5046217;28;20469;-82
2023/11/27 08:46:31;;;;;;;15.32;9.85;;;;;;;3.36;88.67;97668.91;5059842;28;20069;-82
2023/11/27 08:48:57;;;;;;;11.82;8.77;;;;;;;3.52;88.54;97663.72;5069696;28;20060;-83
2023/11/27 08:51:25;;;;;;;13.35;8.07;;;;;;;3.60;88.45;97657.28;5069296;28;20435;-83
2023/11/27 08:53:52;;;;;;;14.75;9.73;;;;;;;3.46;88.26;97645.38;5069047;28;20119;-83
2023/11/27 08:56:18;;;;;;;17.35;8.60;;;;;;;3.55;88.38;97651.91;5051587;28;20467;-82
2023/11/27 08:58:47;;;;;;;8.77;6.95;;;;;;;3.70;88.17;97633.75;5069963;28;20048;-83
2023/11/27 09:01:16;;;;;;;11.88;8.32;;;;;;;3.41;88.73;97643.44;5065607;28;20029;-83
2023/11/27 09:03:42;;;;;;;12.38;7.88;;;;;;;3.33;89.72;97646.44;5061115;28;20051;-82
2023/11/27 09:06:09;;;;;;;11.48;8.13;;;;;;;3.29;90.40;97640.03;5047001;28;20025;-82
2023/11/27 09:08:35;;;;;;;15.20;9.13;;;;;;;3.47;89.15;97655.69;5059246;28;20127;-82
2023/11/27 09:11:00;;;;;;;14.40;8.50;;;;;;;3.37;89.35;97639.66;5049234;28;20115;-82
2023/11/27 09:13:25;;;;;;;13.65;7.82;;;;;;;3.45;89.93;97631.38;5068309;28;20021;-82
2023/11/27 09:15:51;;;;;;;16.98;9.65;;;;;;;3.45;89.38;97633.25;5069264;28;20480;-82
2023/11/27 09:18:16;;;;;;;13.88;8.93;;;;;;;3.28;89.77;97630.50;5033704;28;20036;-83
2023/11/27 09:20:42;;;;;;;11.70;8.95;;;;;;;3.19;90.52;97631.88;5069523;28;20081;-82
2023/11/27 09:23:07;;;;;;;13.90;11.07;;;;;;;2.75;91.07;97640.41;5083207;28;20045;-82
2023/11/27 09:25:33;;;;;;;17.27;9.73;;;;;;;2.83;91.20;97634.78;5050450;28;20036;-81
2023/11/27 09:27:59;;;;;;;14.90;9.25;;;;;;;3.23;91.08;97619.06;5052310;28;20491;-83
2023/11/27 09:30:24;;;;;;;15.82;8.60;;;;;;;3.61;89.82;97603.47;5086372;28;20060;-83
2023/11/27 09:32:51;;;;;;;12.70;7.88;;;;;;;3.57;88.83;97605.00;5051929;28;20123;-82
2023/11/27 09:35:16;;;;;;;14.55;8.20;;;;;;;3.42;90.10;97610.78;5067599;28;20020;-82
2023/11/27 09:37:42;;;;;;;10.45;7.13;;;;;;;3.30;90.32;97603.94;5068386;28;20028;-82
2023/11/27 09:40:12;;;;;;;14.48;9.52;;;;;;;3.09;90.46;97602.69;5067472;28;20090;-83
2023/11/27 09:42:40;;;;;;;14.60;8.55;;;;;;;3.10;90.73;97595.59;5064761;28;20032;-82
2023/11/27 09:45:08;;;;;;;10.45;8.10;;;;;;;2.98;91.91;97570.03;5070464;28;20121;-82
2023/11/27 09:47:34;;;;;;;13.07;8.18;;;;;;;3.22;91.55;97573.44;5072351;28;20036;-82
2023/11/27 09:50:01;;;;;;;10.82;7.88;;;;;;;3.31;89.79;97581.78;5073563;28;20024;-82
2023/11/27 09:52:54;;;;;;;12.75;7.85;;;;;;;3.27;90.33;97583.28;5066063;28;20036;-82
2023/11/27 09:55:20;;;;;;;10.77;8.38;;;;;;;3.29;89.61;97547.75;5064888;28;20068;-83
2023/11/27 09:57:47;;;;;;;12.35;8.02;;;;;;;3.66;88.88;97559.53;5089707;28;20066;-83
2023/11/27 10:00:18;;;;;;;11.85;7.88;;;;;;;3.53;89.13;97557.19;5053098;28;20147;-82
2023/11/27 10:02:47;;;;;;;15.27;8.73;;;;;;;3.47;89.96;97544.91;5055195;28;20032;-82
2023/11/27 10:05:14;;;;;;;15.07;8.13;;;;;;;3.41;90.00;97545.06;5065319;28;20507;-82
2023/11/27 10:07:39;;;;;;;13.65;8.00;;;;;;;3.35;90.77;97527.53;5073145;28;20468;-82
2023/11/27 10:10:05;;;;;;;9.40;7.70;;;;;;;3.39;90.25;97518.13;5055920;28;20059;-82
2023/11/27 10:12:30;;;;;;;13.52;8.32;;;;;;;3.38;89.48;97527.09;5052893;28;20043;-82
2023/11/27 10:14:57;;;;;;;7.97;7.07;;;;;;;3.45;89.83;97517.22;5051094;28;20119;-82
2023/11/27 10:17:24;;;;;;;9.98;6.80;;;;;;;3.70;89.86;97507.09;5055277;28;20033;-83
2023/11/27 10:19:53;;;;;;;11.65;6.97;;;;;;;3.79;88.75;97509.13;5072977;28;20737;-82
2023/11/27 10:22:19;;;;;;;15.25;8.63;;;;;;;3.28;89.50;97495.22;5056068;28;20029;-82
2023/11/27 10:24:45;;;;;;;14.75;7.03;;;;;;;3.56;89.86;97484.69;5073016;28;20024;-83
2023/11/27 10:27:10;;;;;;;10.98;7.07;;;;;;;3.61;88.99;97484.78;5050688;28;20385;-83
2023/11/27 10:29:36;;;;;;;8.77;6.80;;;;;;;3.65;89.46;97478.78;5072782;28;20055;-83
2023/11/27 10:32:02;;;;;;;12.55;6.82;;;;;;;3.85;88.71;97480.16;5071621;28;20380;-83
2023/11/27 10:34:34;;;;;;;11.52;6.88;;;;;;;3.75;89.97;97467.63;5071585;28;20020;-84
2023/11/27 10:37:03;;;;;;;12.98;6.57;;;;;;;3.65;89.48;97470.06;5069109;28;20028;-84
2023/11/27 10:39:35;;;;;;;11.60;7.20;;;;;;;3.58;89.86;97454.38;5070670;28;20060;-84
2023/11/27 10:42:07;;;;;;;10.05;7.13;;;;;;;3.72;89.82;97462.81;5076161;28;20012;-83
2023/11/27 10:44:36;;;;;;;11.30;7.57;;;;;;;3.36;89.38;97455.31;5075119;28;20104;-83
2023/11/27 10:47:07;;;;;;;16.40;6.93;;;;;;;3.44;89.30;97439.91;5062820;28;20089;-83
2023/11/27 10:49:42;;;;;;;12.50;7.55;;;;;;;3.47;90.24;97430.75;5073015;28;20102;-84
2023/11/27 10:52:11;;;;;;;12.15;8.27;;;;;;;3.58;89.85;97432.50;5068659;28;20404;-83
2023/11/27 10:54:41;;;;;;;16.77;7.50;;;;;;;3.87;88.67;97423.47;5038413;28;20025;-83
2023/11/27 10:57:08;;;;;;;9.57;7.65;;;;;;;3.65;89.38;97420.75;5059357;28;20119;-83
2023/11/27 10:59:34;;;;;;;10.18;6.68;;;;;;;3.67;89.50;97399.41;5056563;28;20028;-83
2023/11/27 11:02:04;;;;;;;11.50;8.13;;;;;;;3.71;88.91;97398.69;5053582;28;20021;-83
2023/11/27 11:04:50;;;;;;;12.50;7.10;;;;;;;3.69;90.16;97390.22;5059310;28;20539;-83
2023/11/27 11:07:28;;;;;;;12.52;6.45;;;;;;;3.68;88.90;97382.53;5061939;28;20477;-83
2023/11/27 11:09:55;;;;;;;8.80;7.25;;;;;;;3.93;89.40;97388.22;5071025;28;20495;-82
2023/11/27 11:12:23;;;;;;;10.15;6.93;;;;;;;3.73;88.88;97382.63;5054834;28;20028;-82
2023/11/27 11:14:55;;;;;;;12.95;7.03;;;;;;;3.54;89.79;97381.25;5069083;28;20111;-82
2023/11/27 11:17:40;;;;;;;10.55;7.20;;;;;;;3.60;89.25;97373.16;5071156;28;20029;-82
2023/11/27 11:20:25;;;;;;;12.77;6.70;;;;;;;3.37;89.19;97380.44;5062264;28;20024;-82
2023/11/27 11:23:08;;;;;;;11.00;6.57;;;;;;;3.83;89.66;97364.31;5083745;28;20027;-82
2023/11/27 11:25:49;;;;;;;12.00;6.95;;;;;;;3.59;89.91;97370.78;5068220;28;20048;-82
2023/11/27 11:28:26;;;;;;;13.65;7.20;;;;;;;3.66;89.61;97369.59;5072090;28;20024;-83
2023/11/27 11:31:17;;;;;;;12.27;6.25;;;;;;;3.74;89.51;97361.28;5070946;28;20499;-83
2023/11/27 11:33:43;;;;;;;19.05;7.88;;;;;;;3.63;89.75;97351.59;5070488;28;20476;-82